createdAt,value
2018-09-09T00:02:17.079Z,101749.61
2018-09-09T00:04:45.796Z,101745.96
2018-09-09T00:07:15.161Z,101749.92
2018-09-09T00:09:47.736Z,101753.41
2018-09-09T00:12:16.872Z,101751.11
2018-09-09T00:14:45.466Z,101754.38
2018-09-09T00:17:14.166Z,101752.88
2018-09-09T00:19:42.883Z,101758.47
2018-09-09T00:22:11.539Z,101755.78
2018-09-09T00:24:40.185Z,101762.48
2018-09-09T00:27:08.860Z,101756.55
2018-09-09T00:29:37.606Z,101762.20
2018-09-09T00:32:06.289Z,101766.58
2018-09-09T00:34:34.935Z,101764.50
2018-09-09T00:37:03.614Z,101760.77
2018-09-09T00:39:32.276Z,101758.04
2018-09-09T00:42:00.940Z,101751.98
2018-09-09T00:44:29.625Z,101752.33
2018-09-09T00:46:58.295Z,101749.61
2018-09-09T00:49:32.185Z,101753.50
2018-09-09T00:52:05.990Z,101752.81
2018-09-09T00:54:34.722Z,101756.43
2018-09-09T00:57:03.419Z,101758.84
2018-09-09T00:59:32.088Z,101755.09
2018-09-09T01:02:00.740Z,101757.80
2018-09-09T01:04:29.451Z,101754.95
2018-09-09T01:06:58.160Z,101758.59
2018-09-09T01:09:33.571Z,101757.92
2018-09-09T01:12:03.631Z,101751.30
2018-09-09T01:14:32.733Z,101750.48
2018-09-09T01:17:01.398Z,101744.19
2018-09-09T01:19:30.031Z,101735.56
2018-09-09T01:21:58.694Z,101732.22
2018-09-09T01:24:27.430Z,101750.25
2018-09-09T01:26:56.063Z,101754.21
2018-09-09T01:29:24.785Z,101753.47
2018-09-09T01:31:53.710Z,101762.90
2018-09-09T01:34:22.469Z,101765.52
2018-09-09T01:36:51.156Z,101768.73
2018-09-09T01:39:19.833Z,101776.54
2018-09-09T01:41:48.531Z,101774.19
2018-09-09T01:44:17.168Z,101773.39
2018-09-09T01:46:45.800Z,101777.53
2018-09-09T01:49:14.469Z,101775.17
2018-09-09T01:51:43.145Z,101781.26
2018-09-09T01:54:11.763Z,101783.78
2018-09-09T01:56:40.425Z,101781.80
2018-09-09T01:59:09.078Z,101773.65
2018-09-09T02:01:37.759Z,101761.84
2018-09-09T02:04:06.393Z,101754.86
2018-09-09T02:06:35.093Z,101768.36
2018-09-09T02:09:04.361Z,101761.45
2018-09-09T02:11:32.990Z,101761.77
2018-09-09T02:14:01.666Z,101768.38
2018-09-09T02:16:30.359Z,101769.64
2018-09-09T02:18:59.054Z,101757.33
2018-09-09T02:21:27.724Z,101756.58
2018-09-09T02:23:56.417Z,101752.99
2018-09-09T02:26:25.094Z,101752.72
2018-09-09T02:28:53.891Z,101751.41
2018-09-09T02:31:22.525Z,101752.30
2018-09-09T02:33:51.223Z,101763.00
2018-09-09T02:36:19.830Z,101767.99
2018-09-09T02:38:48.530Z,101769.41
2018-09-09T02:41:17.212Z,101762.34
2018-09-09T02:43:45.905Z,101758.95
2018-09-09T02:46:14.502Z,101759.46
2018-09-09T02:48:43.668Z,101758.90
2018-09-09T02:51:12.284Z,101757.77
2018-09-09T02:53:40.993Z,101755.98
2018-09-09T02:56:11.495Z,101756.88
2018-09-09T02:58:40.184Z,101749.33
2018-09-09T03:01:08.877Z,101748.02
2018-09-09T03:03:37.652Z,101736.70
2018-09-09T03:06:06.435Z,101734.30
2018-09-09T03:08:35.091Z,101749.16
2018-09-09T03:11:08.949Z,101759.95
2018-09-09T03:13:37.623Z,101757.15
2018-09-09T03:16:06.382Z,101751.44
2018-09-09T03:18:35.038Z,101744.12
2018-09-09T03:21:03.845Z,101741.77
2018-09-09T03:23:32.550Z,101736.45
2018-09-09T03:26:01.842Z,101733.56
2018-09-09T03:28:31.133Z,101754.48
2018-09-09T03:30:59.797Z,101749.64
2018-09-09T03:33:28.475Z,101743.22
2018-09-09T03:35:57.073Z,101753.77
2018-09-09T03:38:25.718Z,101762.21
2018-09-09T03:40:54.365Z,101762.28
2018-09-09T03:43:23.110Z,101762.53
2018-09-09T03:45:51.796Z,101772.99
2018-09-09T03:48:20.444Z,101765.35
2018-09-09T03:50:49.122Z,101758.19
2018-09-09T03:53:17.764Z,101753.20
2018-09-09T03:55:46.458Z,101758.19
2018-09-09T03:58:16.074Z,101753.52
2018-09-09T04:00:44.773Z,101752.25
2018-09-09T04:03:13.411Z,101756.16
2018-09-09T04:05:42.080Z,101751.91
2018-09-09T04:08:10.709Z,101744.02
2018-09-09T04:10:39.414Z,101740.34
2018-09-09T04:13:08.074Z,101749.73
2018-09-09T04:15:36.652Z,101751.83
2018-09-09T04:18:05.474Z,101758.19
2018-09-09T04:20:34.109Z,101759.52
2018-09-09T04:23:02.790Z,101764.93
2018-09-09T04:25:31.495Z,101765.19
2018-09-09T04:28:00.119Z,101773.48
2018-09-09T04:30:28.923Z,101775.92
2018-09-09T04:32:57.610Z,101768.87
2018-09-09T04:35:26.310Z,101773.17
2018-09-09T04:37:54.951Z,101772.05
2018-09-09T04:40:23.605Z,101778.34
2018-09-09T04:42:52.268Z,101774.68
2018-09-09T04:45:20.891Z,101780.16
2018-09-09T04:47:49.538Z,101779.36
2018-09-09T04:50:18.230Z,101789.33
2018-09-09T04:52:46.849Z,101791.27
2018-09-09T04:55:16.069Z,101786.00
2018-09-09T04:57:44.758Z,101774.83
2018-09-09T05:00:13.489Z,101771.02
2018-09-09T05:02:42.125Z,101770.82
2018-09-09T05:05:10.813Z,101784.55
2018-09-09T05:07:39.542Z,101790.07
2018-09-09T05:10:08.283Z,101778.68
2018-09-09T05:12:36.908Z,101798.55
2018-09-09T05:15:05.802Z,101800.76
2018-09-09T05:17:34.730Z,101797.99
2018-09-09T05:20:03.533Z,101790.61
2018-09-09T05:22:32.257Z,101794.83
2018-09-09T05:25:00.903Z,101785.63
2018-09-09T05:27:29.657Z,101796.28
2018-09-09T05:29:58.378Z,101796.63
2018-09-09T05:32:27.093Z,101802.89
2018-09-09T05:34:55.752Z,101803.88
2018-09-09T05:37:24.429Z,101807.98
2018-09-09T05:39:53.032Z,101817.93
2018-09-09T05:42:21.745Z,101812.23
2018-09-09T05:44:50.468Z,101812.97
2018-09-09T05:47:19.117Z,101816.74
2018-09-09T05:49:47.724Z,101817.13
2018-09-09T05:52:16.465Z,101827.12
2018-09-09T05:54:45.158Z,101830.27
2018-09-09T05:57:13.868Z,101832.36
2018-09-09T05:59:42.548Z,101824.62
2018-09-09T06:02:11.289Z,101833.29
2018-09-09T06:04:39.957Z,101838.95
2018-09-09T06:07:08.768Z,101839.76
2018-09-09T06:09:37.484Z,101840.92
2018-09-09T06:12:06.207Z,101838.34
2018-09-09T06:14:34.948Z,101840.13
2018-09-09T06:17:03.638Z,101838.84
2018-09-09T06:19:32.254Z,101839.94
2018-09-09T06:22:00.928Z,101834.29
2018-09-09T06:24:29.680Z,101836.06
2018-09-09T06:26:58.483Z,101835.28
2018-09-09T06:29:27.133Z,101839.34
2018-09-09T06:31:55.827Z,101841.83
2018-09-09T06:34:24.525Z,101832.81
2018-09-09T06:36:53.196Z,101838.59
2018-09-09T06:39:21.831Z,101836.49
2018-09-09T06:41:50.547Z,101832.12
2018-09-09T06:44:19.220Z,101837.30
2018-09-09T06:46:47.888Z,101839.20
2018-09-09T06:49:16.543Z,101842.41
2018-09-09T06:51:45.208Z,101838.48
2018-09-09T06:54:13.842Z,101844.70
2018-09-09T06:56:42.517Z,101843.59
2018-09-09T06:59:11.071Z,101848.34
2018-09-09T07:01:39.628Z,101845.71
2018-09-09T07:04:08.288Z,101852.19
2018-09-09T07:06:36.878Z,101850.45
2018-09-09T07:09:06.865Z,101848.02
2018-09-09T07:11:35.584Z,101844.77
2018-09-09T07:14:04.255Z,101849.27
2018-09-09T07:16:33.029Z,101860.36
2018-09-09T07:19:01.987Z,101859.89
2018-09-09T07:21:30.692Z,101857.55
2018-09-09T07:23:59.404Z,101856.47
2018-09-09T07:26:28.477Z,101856.23
2018-09-09T07:28:57.335Z,101847.89
2018-09-09T07:31:26.001Z,101848.85
2018-09-09T07:33:54.626Z,101845.03
2018-09-09T07:36:23.633Z,101838.42
2018-09-09T07:38:52.233Z,101840.52
2018-09-09T07:41:20.846Z,101845.64
2018-09-09T07:43:49.435Z,101848.80
2018-09-09T07:46:18.082Z,101856.00
2018-09-09T07:48:46.693Z,101853.72
2018-09-09T07:51:15.276Z,101856.03
2018-09-09T07:53:43.942Z,101857.18
2018-09-09T07:56:12.628Z,101861.36
2018-09-09T07:58:41.283Z,101860.19
2018-09-09T08:01:09.924Z,101861.25
2018-09-09T08:03:38.525Z,101862.33
2018-09-09T08:06:07.318Z,101865.62
2018-09-09T08:08:35.960Z,101867.42
2018-09-09T08:11:04.509Z,101870.25
2018-09-09T08:13:33.146Z,101872.86
2018-09-09T08:16:01.791Z,101869.57
2018-09-09T08:18:30.489Z,101868.16
2018-09-09T08:20:59.051Z,101866.80
2018-09-09T08:23:27.877Z,101861.14
2018-09-09T08:25:56.537Z,101854.72
2018-09-09T08:28:25.669Z,101849.47
2018-09-09T08:30:54.387Z,101860.45
2018-09-09T08:33:23.067Z,101853.55
2018-09-09T08:35:51.775Z,101846.64
2018-09-09T08:38:20.474Z,101851.41
2018-09-09T08:40:49.127Z,101853.48
2018-09-09T08:43:17.838Z,101851.34
2018-09-09T08:45:46.668Z,101855.30
2018-09-09T08:48:15.302Z,101864.30
2018-09-09T08:50:43.958Z,101859.23
2018-09-09T08:53:12.678Z,101863.42
2018-09-09T08:55:41.319Z,101865.94
2018-09-09T08:58:09.991Z,101869.00
2018-09-09T09:00:38.705Z,101865.34
2018-09-09T09:03:07.491Z,101863.48
2018-09-09T09:05:36.222Z,101852.75
2018-09-09T09:08:05.017Z,101854.33
2018-09-09T09:10:33.648Z,101856.34
2018-09-09T09:13:02.338Z,101854.14
2018-09-09T09:15:31.028Z,101852.73
2018-09-09T09:17:59.753Z,101854.61
2018-09-09T09:20:28.647Z,101857.44
2018-09-09T09:22:57.402Z,101855.84
2018-09-09T09:25:26.053Z,101855.41
2018-09-09T09:27:54.748Z,101850.69
2018-09-09T09:30:23.497Z,101851.27
2018-09-09T09:32:52.233Z,101848.23
2018-09-09T09:35:21.974Z,101847.92
2018-09-09T09:37:50.634Z,101856.73
2018-09-09T09:40:19.540Z,101858.87
2018-09-09T09:42:49.284Z,101854.67
2018-09-09T09:45:18.768Z,101847.96
2018-09-09T09:47:47.529Z,101861.15
2018-09-09T09:50:17.048Z,101847.22
2018-09-09T09:52:47.092Z,101852.77
2018-09-09T09:55:16.033Z,101859.81
2018-09-09T09:57:44.867Z,101858.86
2018-09-09T10:00:18.792Z,101856.99
2018-09-09T10:02:48.272Z,101862.08
2018-09-09T10:05:16.929Z,101851.40
2018-09-09T10:07:45.648Z,101858.90
2018-09-09T10:10:14.722Z,101854.70
2018-09-09T10:12:43.622Z,101851.16
2018-09-09T10:15:12.619Z,101855.07
2018-09-09T10:17:41.525Z,101851.91
2018-09-09T10:20:10.317Z,101855.00
2018-09-09T10:22:39.165Z,101850.41
2018-09-09T10:25:07.952Z,101855.42
2018-09-09T10:27:36.807Z,101866.84
2018-09-09T10:30:05.810Z,101866.84
2018-09-09T10:32:35.268Z,101869.14
2018-09-09T10:35:04.137Z,101876.14
2018-09-09T10:37:33.212Z,101868.80
2018-09-09T10:40:02.173Z,101880.08
2018-09-09T10:42:31.078Z,101875.73
2018-09-09T10:44:59.894Z,101877.16
2018-09-09T10:47:28.853Z,101875.66
2018-09-09T10:49:57.916Z,101864.47
2018-09-09T10:52:26.665Z,101858.45
2018-09-09T10:54:55.564Z,101860.95
2018-09-09T10:57:24.363Z,101859.19
2018-09-09T10:59:53.259Z,101861.40
2018-09-09T11:02:22.084Z,101861.89
2018-09-09T11:04:51.500Z,101862.28
2018-09-09T11:07:20.572Z,101859.75
2018-09-09T11:09:49.335Z,101867.53
2018-09-09T11:12:18.820Z,101862.79
2018-09-09T11:14:47.574Z,101868.09
2018-09-09T11:17:17.254Z,101859.93
2018-09-09T11:19:46.175Z,101853.63
2018-09-09T11:22:15.743Z,101849.89
2018-09-09T11:24:44.727Z,101849.89
2018-09-09T11:27:13.476Z,101841.62
2018-09-09T11:29:42.424Z,101841.08
2018-09-09T11:32:11.388Z,101840.29
2018-09-09T11:34:40.644Z,101842.42
2018-09-09T11:37:12.518Z,101843.89
2018-09-09T11:39:41.885Z,101836.95
2018-09-09T11:42:11.442Z,101835.66
2018-09-09T11:44:40.154Z,101831.69
2018-09-09T11:47:08.918Z,101832.00
2018-09-09T11:49:37.774Z,101827.43
2018-09-09T11:52:06.514Z,101822.61
2018-09-09T11:54:35.689Z,101825.97
2018-09-09T11:57:05.075Z,101816.16
2018-09-09T11:59:33.991Z,101824.10
2018-09-09T12:02:03.101Z,101824.69
2018-09-09T12:04:32.469Z,101823.30
2018-09-09T12:07:01.658Z,101811.66
2018-09-09T12:09:30.673Z,101811.55
2018-09-09T12:12:00.162Z,101804.31
2018-09-09T12:14:29.047Z,101815.88
2018-09-09T12:16:57.883Z,101818.81
2018-09-09T12:19:26.797Z,101821.03
2018-09-09T12:21:55.786Z,101816.83
2018-09-09T12:24:24.659Z,101810.31
2018-09-09T12:26:53.637Z,101814.91
2018-09-09T12:29:23.473Z,101811.23
2018-09-09T12:31:52.222Z,101812.75
2018-09-09T12:34:21.687Z,101812.34
2018-09-09T12:36:50.524Z,101804.37
2018-09-09T12:39:19.269Z,101801.73
2018-09-09T12:41:48.169Z,101801.35
2018-09-09T12:44:22.047Z,101800.63
2018-09-09T12:46:55.913Z,101800.57
2018-09-09T12:49:24.533Z,101800.22
2018-09-09T12:51:53.313Z,101809.16
2018-09-09T12:54:21.944Z,101808.36
2018-09-09T12:56:50.637Z,101804.69
2018-09-09T12:59:19.508Z,101805.81
2018-09-09T13:01:48.380Z,101803.52
2018-09-09T13:04:17.014Z,101800.82
2018-09-09T13:06:45.748Z,101789.91
2018-09-09T13:09:14.441Z,101800.42
2018-09-09T13:11:43.167Z,101800.92
2018-09-09T13:14:11.868Z,101803.89
2018-09-09T13:16:40.604Z,101801.95
2018-09-09T13:19:09.472Z,101805.61
2018-09-09T13:21:38.238Z,101812.95
2018-09-09T13:24:06.904Z,101813.78
2018-09-09T13:26:35.578Z,101808.57
2018-09-09T13:29:04.324Z,101808.04
2018-09-09T13:31:33.110Z,101804.78
2018-09-09T13:34:01.832Z,101800.48
2018-09-09T13:36:30.532Z,101802.94
2018-09-09T13:38:59.286Z,101804.74
2018-09-09T13:41:28.049Z,101808.01
2018-09-09T13:43:56.788Z,101814.39
2018-09-09T13:46:25.482Z,101796.11
2018-09-09T13:48:54.260Z,101802.25
2018-09-09T13:51:22.926Z,101795.27
2018-09-09T13:53:51.599Z,101797.98
2018-09-09T13:56:20.339Z,101796.80
2018-09-09T13:58:49.134Z,101799.45
2018-09-09T14:01:17.832Z,101791.41
2018-09-09T14:03:46.540Z,101792.61
2018-09-09T14:06:15.236Z,101791.81
2018-09-09T14:08:43.949Z,101795.51
2018-09-09T14:11:12.729Z,101795.57
2018-09-09T14:13:41.374Z,101804.30
2018-09-09T14:16:10.142Z,101803.50
2018-09-09T14:18:38.817Z,101800.91
2018-09-09T14:21:07.763Z,101794.93
2018-09-09T14:23:36.521Z,101795.51
2018-09-09T14:26:05.207Z,101795.32
2018-09-09T14:28:33.864Z,101788.64
2018-09-09T14:31:02.778Z,101783.37
2018-09-09T14:33:31.452Z,101782.89
2018-09-09T14:36:00.142Z,101789.71
2018-09-09T14:38:28.800Z,101788.51
2018-09-09T14:40:57.497Z,101791.62
2018-09-09T14:43:26.137Z,101793.80
2018-09-09T14:45:54.833Z,101795.78
2018-09-09T14:48:23.519Z,101790.44
2018-09-09T14:50:52.212Z,101787.84
2018-09-09T14:53:21.062Z,101784.05
2018-09-09T14:55:50.034Z,101788.57
2018-09-09T14:58:18.725Z,101782.66
2018-09-09T15:00:47.407Z,101785.09
2018-09-09T15:03:16.155Z,101783.30
2018-09-09T15:05:44.892Z,101788.37
2018-09-09T15:08:13.651Z,101785.86
2018-09-09T15:10:42.318Z,101788.00
2018-09-09T15:13:11.039Z,101781.71
2018-09-09T15:15:39.717Z,101780.52
2018-09-09T15:18:08.456Z,101786.34
2018-09-09T15:20:37.092Z,101786.41
2018-09-09T15:23:05.873Z,101780.59
2018-09-09T15:25:34.538Z,101780.19
2018-09-09T15:28:03.236Z,101782.19
2018-09-09T15:30:31.944Z,101785.02
2018-09-09T15:33:00.646Z,101782.18
2018-09-09T15:35:29.362Z,101782.18
2018-09-09T15:37:58.017Z,101783.56
2018-09-09T15:40:26.778Z,101786.29
2018-09-09T15:42:55.528Z,101778.20
2018-09-09T15:45:24.261Z,101772.20
2018-09-09T15:47:52.990Z,101768.05
2018-09-09T15:50:21.763Z,101769.72
2018-09-09T15:52:50.723Z,101770.49
2018-09-09T15:55:19.433Z,101759.23
2018-09-09T15:57:48.089Z,101758.16
2018-09-09T16:00:16.894Z,101757.00
2018-09-09T16:02:45.588Z,101750.52
2018-09-09T16:05:14.286Z,101750.52
2018-09-09T16:07:43.002Z,101750.06
2018-09-09T16:10:11.739Z,101746.11
2018-09-09T16:12:40.505Z,101740.35
2018-09-09T16:15:09.143Z,101745.10
2018-09-09T16:17:37.793Z,101749.47
2018-09-09T16:20:07.422Z,101741.05
2018-09-09T16:22:36.113Z,101745.36
2018-09-09T16:25:04.884Z,101747.59
2018-09-09T16:27:33.593Z,101739.69
2018-09-09T16:30:02.336Z,101749.84
2018-09-09T16:32:31.031Z,101751.82
2018-09-09T16:34:59.700Z,101745.16
2018-09-09T16:37:28.391Z,101742.83
2018-09-09T16:39:57.060Z,101743.38
2018-09-09T16:42:25.821Z,101742.33
2018-09-09T16:44:54.564Z,101736.77
2018-09-09T16:47:23.217Z,101748.98
2018-09-09T16:49:51.944Z,101740.20
2018-09-09T16:52:21.310Z,101735.41
2018-09-09T16:54:50.018Z,101744.25
2018-09-09T16:57:18.744Z,101741.81
2018-09-09T16:59:47.459Z,101749.19
2018-09-09T17:02:16.220Z,101750.17
2018-09-09T17:04:45.017Z,101745.98
2018-09-09T17:07:13.855Z,101747.58
2018-09-09T17:09:42.615Z,101748.19
2018-09-09T17:12:11.317Z,101741.86
2018-09-09T17:14:40.048Z,101741.34
2018-09-09T17:17:08.784Z,101742.33
2018-09-09T17:19:37.472Z,101742.77
2018-09-09T17:22:06.311Z,101742.57
2018-09-09T17:24:34.991Z,101742.81
2018-09-09T17:27:03.694Z,101743.70
2018-09-09T17:29:32.438Z,101741.80
2018-09-09T17:32:01.147Z,101740.09
2018-09-09T17:34:29.892Z,101742.17
2018-09-09T17:36:58.596Z,101741.63
2018-09-09T17:39:27.303Z,101742.23
2018-09-09T17:41:56.090Z,101747.63
2018-09-09T17:44:24.874Z,101744.72
2018-09-09T17:46:53.601Z,101750.80
2018-09-09T17:49:22.430Z,101748.00
2018-09-09T17:51:51.100Z,101754.36
2018-09-09T17:54:19.811Z,101752.78
2018-09-09T17:56:48.501Z,101756.38
2018-09-09T17:59:17.322Z,101755.66
2018-09-09T18:01:46.098Z,101751.33
2018-09-09T18:04:14.912Z,101759.59
2018-09-09T18:06:43.588Z,101766.73
2018-09-09T18:09:12.252Z,101761.11
2018-09-09T18:11:41.039Z,101763.99
2018-09-09T18:14:09.647Z,101771.56
2018-09-09T18:16:38.252Z,101766.39
2018-09-09T18:19:06.998Z,101773.36
2018-09-09T18:21:35.751Z,101771.75
2018-09-09T18:24:04.447Z,101778.03
2018-09-09T18:26:33.771Z,101781.90
2018-09-09T18:29:02.645Z,101778.24
2018-09-09T18:31:31.351Z,101782.44
2018-09-09T18:34:00.082Z,101785.83
2018-09-09T18:36:28.859Z,101783.74
2018-09-09T18:38:57.632Z,101789.83
2018-09-09T18:41:26.336Z,101789.80
2018-09-09T18:43:55.316Z,101782.25
2018-09-09T18:46:23.976Z,101781.07
2018-09-09T18:48:52.948Z,101781.23
2018-09-09T18:51:21.662Z,101772.50
2018-09-09T18:53:50.301Z,101779.82
2018-09-09T18:56:18.989Z,101775.46
2018-09-09T18:58:47.707Z,101772.55
2018-09-09T19:01:16.343Z,101780.67
2018-09-09T19:03:45.007Z,101786.03
2018-09-09T19:06:13.774Z,101785.03
2018-09-09T19:08:42.424Z,101788.34
2018-09-09T19:11:11.121Z,101792.09
2018-09-09T19:13:39.858Z,101790.84
2018-09-09T19:16:08.682Z,101795.78
2018-09-09T19:18:37.363Z,101798.00
2018-09-09T19:21:06.063Z,101793.47
2018-09-09T19:23:34.771Z,101802.08
2018-09-09T19:26:03.497Z,101802.72
2018-09-09T19:28:32.222Z,101801.22
2018-09-09T19:31:00.958Z,101803.79
2018-09-09T19:33:29.725Z,101802.92
2018-09-09T19:35:58.411Z,101804.09
2018-09-09T19:38:27.176Z,101807.95
2018-09-09T19:40:55.932Z,101807.63
2018-09-09T19:43:24.598Z,101803.05
2018-09-09T19:45:53.865Z,101806.11
2018-09-09T19:48:22.581Z,101808.05
2018-09-09T19:50:51.320Z,101808.14
2018-09-09T19:53:20.087Z,101806.45
2018-09-09T19:55:48.782Z,101812.64
2018-09-09T19:58:17.529Z,101815.30
2018-09-09T20:00:46.256Z,101804.55
2018-09-09T20:03:15.011Z,101805.11
2018-09-09T20:05:43.690Z,101812.44
2018-09-09T20:08:12.467Z,101805.75
2018-09-09T20:10:41.163Z,101810.67
2018-09-09T20:13:09.806Z,101800.98
2018-09-09T20:15:38.450Z,101805.42
2018-09-09T20:18:07.546Z,101807.65
2018-09-09T20:20:36.279Z,101806.37
2018-09-09T20:23:04.938Z,101804.55
2018-09-09T20:25:33.563Z,101807.17
2018-09-09T20:28:02.227Z,101801.70
2018-09-09T20:30:30.971Z,101806.94
2018-09-09T20:32:59.640Z,101807.73
2018-09-09T20:35:28.336Z,101801.05
2018-09-09T20:37:57.008Z,101805.95
2018-09-09T20:40:25.847Z,101808.03
2018-09-09T20:42:54.561Z,101804.72
2018-09-09T20:45:23.765Z,101802.09
2018-09-09T20:47:52.462Z,101812.94
2018-09-09T20:50:21.166Z,101810.09
2018-09-09T20:52:49.809Z,101819.09
2018-09-09T20:55:18.707Z,101812.95
2018-09-09T20:57:47.357Z,101807.02
2018-09-09T21:00:16.013Z,101807.83
2018-09-09T21:02:44.725Z,101801.42
2018-09-09T21:05:13.378Z,101798.83
2018-09-09T21:07:42.047Z,101798.66
2018-09-09T21:10:10.781Z,101795.92
2018-09-09T21:12:39.476Z,101796.41
2018-09-09T21:15:08.474Z,101798.48
2018-09-09T21:17:37.155Z,101788.02
2018-09-09T21:20:05.922Z,101794.45
2018-09-09T21:22:34.624Z,101790.50
2018-09-09T21:25:03.401Z,101794.73
2018-09-09T21:27:32.122Z,101795.94
2018-09-09T21:30:01.405Z,101787.83
2018-09-09T21:32:30.155Z,101795.75
2018-09-09T21:34:58.893Z,101788.20
2018-09-09T21:37:27.547Z,101800.66
2018-09-09T21:39:56.198Z,101792.78
2018-09-09T21:42:25.217Z,101789.33
2018-09-09T21:44:53.895Z,101785.23
2018-09-09T21:47:22.567Z,101786.81
2018-09-09T21:49:51.206Z,101783.03
2018-09-09T21:52:19.935Z,101783.75
2018-09-09T21:54:48.691Z,101779.90
2018-09-09T21:57:17.341Z,101778.87
2018-09-09T21:59:45.986Z,101784.23
2018-09-09T22:02:15.000Z,101777.35
2018-09-09T22:04:43.687Z,101775.19
2018-09-09T22:07:13.636Z,101780.66
2018-09-09T22:09:43.690Z,101773.88
2018-09-09T22:12:13.252Z,101773.31
2018-09-09T22:14:42.677Z,101764.88
2018-09-09T22:17:11.812Z,101761.66
2018-09-09T22:19:40.740Z,101754.89
2018-09-09T22:22:10.429Z,101754.73
2018-09-09T22:24:39.120Z,101760.43
2018-09-09T22:27:07.965Z,101758.83
2018-09-09T22:29:36.741Z,101754.16
2018-09-09T22:32:05.434Z,101755.61
2018-09-09T22:34:34.375Z,101757.67
2018-09-09T22:37:03.039Z,101757.27
2018-09-09T22:39:31.733Z,101757.45
2018-09-09T22:42:00.474Z,101758.53
2018-09-09T22:44:29.166Z,101760.08
2018-09-09T22:46:57.809Z,101754.48
2018-09-09T22:49:26.669Z,101757.45
2018-09-09T22:51:55.997Z,101758.27
2018-09-09T22:54:24.699Z,101757.94
2018-09-09T22:56:53.466Z,101755.77
2018-09-09T22:59:22.190Z,101758.59
2018-09-09T23:01:50.908Z,101759.71
2018-09-09T23:04:19.631Z,101761.56
2018-09-09T23:06:48.334Z,101756.79
2018-09-09T23:09:17.005Z,101762.06
2018-09-09T23:11:45.680Z,101754.80
2018-09-09T23:14:14.481Z,101759.54
2018-09-09T23:16:43.196Z,101753.62
2018-09-09T23:19:11.890Z,101747.80
2018-09-09T23:21:40.556Z,101755.23
2018-09-09T23:24:09.221Z,101751.00
2018-09-09T23:26:38.001Z,101741.95
2018-09-09T23:29:06.765Z,101741.07
2018-09-09T23:31:35.456Z,101743.13
2018-09-09T23:34:04.224Z,101742.20
2018-09-09T23:36:32.865Z,101738.16
2018-09-09T23:39:01.610Z,101738.10
2018-09-09T23:41:30.597Z,101740.59
2018-09-09T23:43:59.359Z,101741.95
2018-09-09T23:46:28.066Z,101735.13
2018-09-09T23:48:56.886Z,101731.19
2018-09-09T23:51:25.644Z,101733.88
2018-09-09T23:53:54.302Z,101733.88
2018-09-09T23:56:23.065Z,101738.72
2018-09-09T23:58:51.811Z,101738.48
